aviador You're here:

KGDP Decoded Metar

GUADALUPE PASS in TX, USA
Report Time2018-05-20 22:51:00
UTC Time2018-05-20 23:18:37
Flight Rules vfr VFR
Wind070° at 20 Gusting to 29 kt
W.Rank070° ranks 6
Current wind is above 070° avg. (17.5)
Visibility9999 m
Phenomena:N/A
Clouds:N/A
Expected CloudBase > 4,800 ft AGL from Temp-Dew spread
CeilingNone
Temp23°C (ISA +19)
Dew Point11°C (47% RH)
AAT16.1°C
QNH1019 hPa
Density Alt7,717 ft
Elevation5,551 ft
Report Wrong Elevation
Raw Report
KGDP 202251Z AUTO 07020G29KT 9SM CLR 23/11 A3009 RMK AO2 PK WND
08029/2246 SLP121 T02280106 $=

Extra information for KGDP:More info

Metar Taf Metar & Taf Last 4 Metars F.Rules Stats Wind Profile Meteogram Temp Stats Airport Information Weather charts Add Link Nearby VenuesMetar ALERT Operation Metar Decoded Social comments

AIRNAV info for KGDP